Time;durP1;ratioP1;P1;durP2;ratioP2;P2;SDS_P1;SDS_P2;PMS_P1;PMS_P2;Temp;Humidity;BMP_temperature;BMP_pressure;BME280_temperature;BME280_humidity;BME280_pressure;Samples;Min_cycle;Max_cycle;Signal;HPM_P1;HPM_P2
2022/07/16 00:01:54;;;;;;;5.57;5.38;;;;;;;15.28;73.90;101465.59;5992933;23;20437;-68
2022/07/16 00:04:21;;;;;;;4.90;4.70;;;;;;;15.23;74.27;101443.00;6020868;23;20084;-68
2022/07/16 00:06:48;;;;;;;4.72;4.53;;;;;;;15.21;74.13;101514.47;6029464;23;20019;-68
2022/07/16 00:09:14;;;;;;;4.72;4.53;;;;;;;15.16;74.47;101442.53;6038767;23;20053;-69
2022/07/16 00:11:41;;;;;;;4.82;4.63;;;;;;;15.12;74.16;101451.56;6052476;23;20027;-70
2022/07/16 00:14:07;;;;;;;4.85;4.65;;;;;;;15.05;74.76;101458.16;6041682;23;20094;-68
2022/07/16 00:16:34;;;;;;;4.60;4.40;;;;;;;15.02;75.15;101448.63;6002546;23;20035;-67
2022/07/16 00:19:16;;;;;;;6.47;6.18;;;;;;;14.65;75.21;101379.41;6031468;23;20038;-68
2022/07/16 00:21:43;;;;;;;4.90;4.70;;;;;;;15.00;75.48;101439.94;6020434;23;20015;-70
2022/07/16 00:24:10;;;;;;;4.90;4.70;;;;;;;14.52;75.36;101360.75;6020422;23;20041;-68
2022/07/16 00:26:37;;;;;;;4.80;4.60;;;;;;;14.79;75.60;101486.94;6032155;23;20436;-67
2022/07/16 00:29:03;;;;;;;6.38;6.07;;;;;;;14.95;75.83;101440.22;6022224;23;20063;-68
2022/07/16 00:31:30;;;;;;;4.63;4.43;;;;;;;14.94;75.89;101449.06;6026940;23;20048;-69
2022/07/16 00:33:56;;;;;;;6.13;5.82;;;;;;;14.86;75.64;101429.31;6018728;23;20533;-68
2022/07/16 00:36:23;;;;;;;4.93;4.72;;;;;;;14.84;76.09;101429.41;6022033;23;20384;-68
2022/07/16 00:38:49;;;;;;;5.97;5.68;;;;;;;13.70;76.45;101256.34;6025314;23;20110;-69
2022/07/16 00:41:18;;;;;;;4.70;4.50;;;;;;;14.80;75.85;101419.13;6004750;23;20064;-68
2022/07/16 00:43:50;;;;;;;5.00;4.80;;;;;;;14.75;76.67;101435.22;6031300;23;20110;-68
2022/07/16 00:46:17;;;;;;;5.00;4.80;;;;;;;14.67;76.04;101417.19;6027145;23;20019;-69
2022/07/16 00:48:45;;;;;;;5.15;4.95;;;;;;;14.66;77.01;101426.03;6015019;23;20476;-68
2022/07/16 00:51:14;;;;;;;4.78;4.57;;;;;;;14.56;77.17;101428.34;6053111;23;20627;-69
2022/07/16 00:53:42;;;;;;;5.15;4.95;;;;;;;14.54;78.02;101459.25;6021859;23;20014;-68
2022/07/16 00:56:11;;;;;;;5.35;5.15;;;;;;;14.45;78.35;101420.19;5993105;23;20863;-68
2022/07/16 00:58:40;;;;;;;4.90;4.70;;;;;;;14.23;78.95;101406.47;6015471;23;20015;-68
2022/07/16 01:01:08;;;;;;;4.70;4.50;;;;;;;14.28;79.56;101441.41;6029934;23;20567;-68
2022/07/16 01:03:35;;;;;;;5.03;4.82;;;;;;;14.11;79.82;101437.91;6018403;23;20380;-68
2022/07/16 01:06:03;;;;;;;6.35;6.05;;;;;;;14.18;80.83;101427.84;5996906;23;20106;-69
2022/07/16 01:08:32;;;;;;;5.05;4.85;;;;;;;13.99;81.05;101432.44;6021549;23;20021;-68
2022/07/16 01:10:59;;;;;;;6.00;5.70;;;;;;;13.93;81.08;101404.59;6026460;23;20464;-69
2022/07/16 01:13:25;;;;;;;4.78;4.57;;;;;;;14.07;80.94;101440.78;6022121;23;20016;-70
2022/07/16 01:15:52;;;;;;;5.72;5.38;;;;;;;14.05;81.19;101425.06;6030714;23;20231;-68
2022/07/16 01:18:18;;;;;;;5.30;5.00;;;;;;;13.86;81.95;101393.53;6028482;23;20014;-68
2022/07/16 01:20:45;;;;;;;4.85;4.65;;;;;;;13.91;81.20;101415.25;6023531;23;20575;-68
2022/07/16 01:23:22;;;;;;;5.40;5.20;;;;;;;13.89;81.53;101430.31;6016533;23;20113;-68
2022/07/16 01:25:49;;;;;;;4.88;4.68;;;;;;;12.69;82.37;101338.16;6021221;23;20196;-69
2022/07/16 01:28:16;;;;;;;5.65;5.35;;;;;;;13.66;82.01;101384.06;6028222;23;20010;-68
2022/07/16 01:30:43;;;;;;;5.05;4.85;;;;;;;13.43;82.10;101377.41;6022550;23;20045;-69
2022/07/16 01:33:21;;;;;;;5.57;5.38;;;;;;;13.48;82.71;101396.44;6015116;23;20012;-68
2022/07/16 01:35:49;;;;;;;4.90;4.70;;;;;;;12.62;82.44;101355.22;6024765;23;20544;-68
2022/07/16 01:38:16;;;;;;;4.80;4.60;;;;;;;12.40;82.81;101239.59;6015673;23;20425;-70
2022/07/16 01:40:43;;;;;;;5.05;4.85;;;;;;;13.41;82.50;101388.94;6000865;23;20351;-68
2022/07/16 01:43:17;;;;;;;5.97;5.68;;;;;;;13.52;83.34;101410.31;6017706;23;20082;-68
2022/07/16 01:45:44;;;;;;;4.80;4.60;;;;;;;13.34;83.97;101384.00;5999200;23;20039;-70
2022/07/16 01:48:11;;;;;;;5.10;4.90;;;;;;;13.43;83.70;101410.81;6020755;23;20034;-68
2022/07/16 01:50:39;;;;;;;4.70;4.50;;;;;;;13.38;84.49;101410.22;6027967;23;20496;-69
2022/07/16 01:53:06;;;;;;;5.30;5.00;;;;;;;13.27;84.86;101437.97;6021279;23;20038;-69
2022/07/16 01:55:36;;;;;;;4.82;4.63;;;;;;;13.33;85.46;101455.25;6028851;23;20350;-69
2022/07/16 01:58:03;;;;;;;4.60;4.40;;;;;;;13.27;85.84;101402.81;6022008;23;20535;-69
2022/07/16 02:00:31;;;;;;;4.90;4.70;;;;;;;13.25;86.21;101395.00;6020795;23;20761;-69
2022/07/16 02:02:58;;;;;;;6.47;6.07;;;;;;;13.51;85.26;101443.75;6020666;23;20047;-69
2022/07/16 02:05:25;;;;;;;4.60;4.40;;;;;;;13.14;86.18;101374.47;6021044;23;20031;-69
2022/07/16 02:07:52;;;;;;;5.03;4.82;;;;;;;13.62;85.20;101463.44;6018169;23;20090;-70
2022/07/16 02:10:21;;;;;;;4.85;4.65;;;;;;;13.44;85.83;101405.47;6029173;23;20033;-69
2022/07/16 02:12:47;;;;;;;4.90;4.70;;;;;;;13.65;86.10;101440.41;6023163;23;20733;-68
2022/07/16 02:15:16;;;;;;;4.70;4.50;;;;;;;13.50;86.30;101405.13;6017033;23;20019;-69
2022/07/16 02:17:42;;;;;;;4.90;4.68;;;;;;;13.35;86.02;101363.78;6020220;23;20050;-68
2022/07/16 02:20:11;;;;;;;6.05;5.75;;;;;;;13.69;86.51;101443.69;6026363;23;20027;-69
2022/07/16 02:22:37;;;;;;;4.80;4.60;;;;;;;13.71;85.88;101412.81;6018775;23;20034;-68
2022/07/16 02:25:06;;;;;;;4.70;4.50;;;;;;;13.57;86.09;101414.44;6009978;23;20270;-69
2022/07/16 02:27:32;;;;;;;4.68;4.47;;;;;;;13.77;85.37;101431.81;6029270;23;20335;-69
2022/07/16 02:29:59;;;;;;;6.35;6.05;;;;;;;13.60;84.61;101389.66;6029929;23;20045;-69
2022/07/16 02:32:27;;;;;;;4.85;4.65;;;;;;;13.59;84.90;101445.13;6025650;23;20017;-69
2022/07/16 02:34:54;;;;;;;5.55;5.35;;;;;;;13.09;85.31;101329.06;6004859;23;20035;-69
2022/07/16 02:37:21;;;;;;;4.70;4.50;;;;;;;12.64;86.35;101262.03;6032333;23;20046;-68
2022/07/16 02:39:47;;;;;;;4.80;4.60;;;;;;;13.44;87.03;101405.47;6045677;23;20097;-69
2022/07/16 02:42:14;;;;;;;5.00;4.80;;;;;;;13.39;87.84;101404.00;6028686;23;20509;-68
2022/07/16 02:44:40;;;;;;;4.85;4.65;;;;;;;12.85;89.93;101375.09;6021995;23;20033;-69
2022/07/16 02:47:07;;;;;;;6.03;5.72;;;;;;;13.11;90.69;101413.28;6018906;23;20022;-69
2022/07/16 02:49:34;;;;;;;4.90;4.70;;;;;;;11.82;90.91;101167.91;5998625;23;20027;-69
2022/07/16 02:52:00;;;;;;;6.85;6.55;;;;;;;13.21;91.00;101459.34;6016746;23;20085;-68
2022/07/16 02:54:27;;;;;;;4.72;4.53;;;;;;;13.22;91.20;101402.22;5998669;23;20329;-69
2022/07/16 02:56:53;;;;;;;5.57;5.28;;;;;;;12.97;91.40;101342.88;6022440;23;20023;-69
2022/07/16 02:59:20;;;;;;;4.93;4.72;;;;;;;13.17;92.37;101424.41;6027850;23;20398;-69
2022/07/16 03:01:46;;;;;;;4.85;4.63;;;;;;;13.25;91.72;101402.03;6021558;23;20015;-69
2022/07/16 03:04:12;;;;;;;6.85;6.55;;;;;;;13.30;91.52;101418.50;6027057;23;20156;-69
2022/07/16 03:06:39;;;;;;;4.90;4.70;;;;;;;13.32;92.58;101459.69;6022997;23;20461;-69
2022/07/16 03:09:05;;;;;;;6.82;6.53;;;;;;;13.41;92.35;101425.84;6022995;23;20308;-68
2022/07/16 03:11:32;;;;;;;4.80;4.60;;;;;;;13.49;91.60;101448.28;6029288;23;20516;-69
2022/07/16 03:13:58;;;;;;;6.32;6.03;;;;;;;13.57;90.89;101490.91;6048023;23;20015;-69
2022/07/16 03:16:25;;;;;;;4.70;4.50;;;;;;;13.63;90.52;101444.03;6033866;23;20031;-69
2022/07/16 03:18:51;;;;;;;5.20;4.90;;;;;;;13.73;89.54;101450.53;6002162;23;20282;-69
2022/07/16 03:21:17;;;;;;;4.70;4.50;;;;;;;13.52;89.59;101432.28;6000066;23;21123;-68
2022/07/16 03:23:44;;;;;;;4.97;4.78;;;;;;;13.88;89.14;101467.34;6037512;23;20051;-69
2022/07/16 03:26:10;;;;;;;5.57;5.38;;;;;;;13.92;88.91;101455.69;6015680;23;20143;-69
2022/07/16 03:28:38;;;;;;;4.97;4.78;;;;;;;13.83;88.01;101441.19;6003256;23;20476;-69
2022/07/16 03:31:04;;;;;;;6.00;5.70;;;;;;;13.85;87.23;101452.53;6017903;23;20503;-69
2022/07/16 03:33:31;;;;;;;4.78;4.57;;;;;;;14.01;86.42;101475.44;5994050;23;20083;-69
2022/07/16 03:35:57;;;;;;;6.38;6.07;;;;;;;13.88;86.40;101444.44;6031044;23;20027;-69
2022/07/16 03:41:09;;;;;;;5.50;5.30;;;;;;;14.15;86.06;101443.84;6021984;23;20025;-69
2022/07/16 03:43:35;;;;;;;4.82;4.63;;;;;;;13.98;85.60;101452.69;6018493;23;20338;-69
2022/07/16 03:46:02;;;;;;;6.53;6.18;;;;;;;13.89;85.99;101475.16;6025530;23;20965;-69
2022/07/16 03:48:28;;;;;;;4.68;4.47;;;;;;;14.10;85.34;101462.59;6026497;23;20013;-69
2022/07/16 03:50:55;;;;;;;6.18;5.88;;;;;;;14.09;85.44;101460.03;6027157;23;20026;-69
2022/07/16 03:53:21;;;;;;;4.70;4.50;;;;;;;14.06;86.03;101450.50;6017816;23;20464;-69
2022/07/16 03:55:48;;;;;;;4.60;4.40;;;;;;;13.92;86.51;101505.81;6034998;23;20042;-70
2022/07/16 03:58:14;;;;;;;4.80;4.60;;;;;;;13.74;87.38;101452.25;6016987;23;20034;-70
2022/07/16 04:00:40;;;;;;;4.60;4.40;;;;;;;13.89;88.15;101440.00;6029599;23;20101;-71
2022/07/16 04:03:07;;;;;;;6.20;5.90;;;;;;;13.99;86.80;101482.56;6019948;23;20159;-70
2022/07/16 04:05:33;;;;;;;4.80;4.60;;;;;;;14.03;86.97;101444.53;6029068;23;20011;-70
2022/07/16 04:08:01;;;;;;;6.40;6.00;;;;;;;14.00;86.15;101444.72;6024518;23;20030;-70
2022/07/16 04:10:27;;;;;;;4.68;4.47;;;;;;;14.13;86.17;101469.47;6028671;23;20105;-70
2022/07/16 04:12:53;;;;;;;6.85;5.60;;;;;;;14.16;86.54;101469.31;6022633;23;20015;-70
2022/07/16 04:15:20;;;;;;;4.80;4.60;;;;;;;14.23;86.57;101475.09;6005004;23;20096;-70
2022/07/16 04:17:46;;;;;;;4.78;4.57;;;;;;;14.29;85.36;101477.41;6026941;23;20019;-70
2022/07/16 04:20:13;;;;;;;4.78;4.57;;;;;;;14.41;84.68;101533.97;6033033;23;20141;-70
2022/07/16 04:22:39;;;;;;;4.93;4.72;;;;;;;14.32;84.15;101466.69;6025908;23;20034;-70
2022/07/16 04:25:06;;;;;;;6.32;6.03;;;;;;;14.48;83.22;101487.81;5997394;23;20378;-70
2022/07/16 04:27:33;;;;;;;4.80;4.60;;;;;;;14.45;83.37;101488.84;6024925;23;20158;-71
2022/07/16 04:29:59;;;;;;;6.25;5.95;;;;;;;14.52;83.23;101537.72;6028692;23;20014;-70
2022/07/16 04:32:26;;;;;;;4.88;4.68;;;;;;;14.54;82.96;101505.97;6020947;23;20015;-70
2022/07/16 04:34:52;;;;;;;5.78;5.53;;;;;;;14.60;83.83;101497.72;6001775;23;20061;-70
2022/07/16 04:37:19;;;;;;;5.43;5.20;;;;;;;14.67;83.04;101496.44;6023093;23;20082;-70
2022/07/16 04:39:45;;;;;;;5.00;4.80;;;;;;;14.76;82.78;101510.91;6029632;23;20019;-70
2022/07/16 04:42:12;;;;;;;5.22;5.03;;;;;;;14.53;82.09;101496.31;6021902;23;20384;-70
2022/07/16 04:44:38;;;;;;;4.88;4.68;;;;;;;14.71;81.34;101473.31;6026055;23;20480;-70
2022/07/16 04:47:05;;;;;;;6.28;5.97;;;;;;;15.02;80.33;101501.50;6027660;23;20027;-71
2022/07/16 04:49:31;;;;;;;4.80;4.60;;;;;;;15.08;79.90;101508.22;5996009;23;20464;-70
2022/07/16 04:51:57;;;;;;;6.55;6.25;;;;;;;14.96;80.82;101501.84;6018615;23;20091;-70
2022/07/16 04:54:24;;;;;;;4.95;4.75;;;;;;;14.96;80.18;101509.78;6004420;23;20425;-70
2022/07/16 04:56:51;;;;;;;5.72;5.45;;;;;;;15.09;80.45;101573.34;6021920;23;20034;-70
2022/07/16 04:59:17;;;;;;;5.07;4.88;;;;;;;15.12;80.03;101512.38;6028032;23;20089;-70
2022/07/16 05:01:43;;;;;;;5.00;4.80;;;;;;;15.02;79.53;101501.50;6019382;23;20406;-70
2022/07/16 05:04:10;;;;;;;5.00;4.80;;;;;;;15.11;79.19;101487.75;6021461;23;20074;-70
2022/07/16 05:06:36;;;;;;;4.93;4.72;;;;;;;15.38;79.21;101525.88;6032429;23;20015;-70
2022/07/16 05:09:04;;;;;;;6.35;6.00;;;;;;;15.46;77.76;101524.47;6027207;23;20026;-67
2022/07/16 05:11:30;;;;;;;5.10;4.80;;;;;;;15.41;77.61;101508.00;6024443;23;20010;-70
2022/07/16 05:13:57;;;;;;;6.57;6.28;;;;;;;15.66;76.47;101541.78;6032971;23;20178;-70
2022/07/16 05:16:24;;;;;;;4.90;4.70;;;;;;;15.70;76.42;101532.72;6024404;23;20023;-71
2022/07/16 05:18:51;;;;;;;5.45;5.15;;;;;;;14.95;75.22;101424.34;6023418;23;20053;-70
2022/07/16 05:21:18;;;;;;;5.00;4.80;;;;;;;16.00;74.27;101571.56;6017477;23;20095;-71
2022/07/16 05:23:47;;;;;;;4.93;4.72;;;;;;;16.18;74.27;101563.41;6002410;23;20027;-70
2022/07/16 05:26:14;;;;;;;4.90;4.70;;;;;;;16.34;73.25;101565.00;6017445;23;20040;-70
2022/07/16 05:28:41;;;;;;;4.95;4.75;;;;;;;16.41;73.46;101561.97;5982458;23;20023;-71
2022/07/16 05:31:07;;;;;;;6.63;6.30;;;;;;;16.43;73.25;101558.28;6015742;23;20043;-70
2022/07/16 05:33:34;;;;;;;5.00;4.80;;;;;;;16.52;73.11;101555.06;5997713;23;20374;-71
2022/07/16 05:36:01;;;;;;;6.72;6.43;;;;;;;16.23;73.48;101505.72;6019295;23;20049;-71
2022/07/16 05:38:27;;;;;;;5.03;4.82;;;;;;;16.60;72.85;101562.53;6028822;23;20567;-70
2022/07/16 05:40:54;;;;;;;6.13;5.82;;;;;;;16.57;72.97;101553.91;6028696;23;20035;-70
2022/07/16 05:43:20;;;;;;;5.05;4.85;;;;;;;16.16;72.20;101515.84;6023157;23;20167;-71
2022/07/16 05:45:47;;;;;;;5.22;5.03;;;;;;;16.42;72.38;101555.75;6022561;23;20026;-70
2022/07/16 05:48:13;;;;;;;5.28;5.05;;;;;;;16.66;72.17;101570.06;6044186;23;20038;-70
2022/07/16 05:50:40;;;;;;;4.72;4.53;;;;;;;16.85;71.30;101577.72;6025369;23;20257;-70
2022/07/16 05:53:06;;;;;;;6.55;6.25;;;;;;;16.90;70.25;101580.94;5996726;23;20299;-70
2022/07/16 05:55:33;;;;;;;5.05;4.85;;;;;;;16.75;70.90;101558.03;6035767;23;20078;-70
2022/07/16 05:57:59;;;;;;;5.93;5.63;;;;;;;16.81;71.51;101554.13;6030406;23;20192;-70
2022/07/16 06:00:26;;;;;;;4.93;4.72;;;;;;;16.84;68.62;101575.16;6020994;23;20028;-70
2022/07/16 06:02:52;;;;;;;5.55;5.32;;;;;;;17.06;69.08;101588.75;6005733;23;20014;-71
2022/07/16 06:05:19;;;;;;;5.15;4.95;;;;;;;17.18;69.61;101607.44;6029867;23;20523;-71
2022/07/16 06:07:45;;;;;;;5.57;4.93;;;;;;;17.05;68.99;101560.50;6026482;23;20054;-70
2022/07/16 06:10:11;;;;;;;5.30;5.10;;;;;;;17.51;68.76;101630.91;6020272;23;20352;-71
2022/07/16 06:12:38;;;;;;;5.20;5.00;;;;;;;17.64;68.95;101629.16;6026303;23;20579;-70
2022/07/16 06:15:06;;;;;;;6.93;6.63;;;;;;;17.55;68.40;101627.09;5991543;23;20119;-71
2022/07/16 06:17:32;;;;;;;5.20;5.00;;;;;;;17.30;68.60;101588.94;6023868;23;20046;-71
2022/07/16 06:19:59;;;;;;;6.47;6.18;;;;;;;17.32;67.78;101594.97;6028633;23;20038;-71
2022/07/16 06:22:25;;;;;;;5.40;5.20;;;;;;;17.39;67.90;101602.53;6023332;23;20250;-70
2022/07/16 06:24:51;;;;;;;5.45;5.20;;;;;;;17.23;67.88;101579.66;6025021;23;20026;-71
2022/07/16 06:27:18;;;;;;;5.60;5.30;;;;;;;17.25;67.31;101583.06;6027039;23;20038;-71
2022/07/16 06:29:44;;;;;;;5.60;5.30;;;;;;;17.37;67.70;101597.31;6028671;23;20500;-71
2022/07/16 06:32:11;;;;;;;5.72;5.43;;;;;;;17.64;66.34;101620.31;6020520;23;20015;-70
2022/07/16 06:34:38;;;;;;;5.70;5.40;;;;;;;17.88;65.60;101621.34;6012066;23;20309;-70
2022/07/16 06:37:04;;;;;;;6.93;6.53;;;;;;;18.27;64.12;101651.41;6027869;23;20487;-71
2022/07/16 06:39:31;;;;;;;5.18;4.97;;;;;;;18.18;63.39;101614.88;6012585;23;20042;-70
2022/07/16 06:41:58;;;;;;;6.60;6.30;;;;;;;18.52;62.12;101639.94;6028823;23;20211;-70
2022/07/16 06:44:26;;;;;;;5.25;5.05;;;;;;;18.72;62.49;101648.28;6015510;23;20014;-70
2022/07/16 06:46:53;;;;;;;6.25;5.97;;;;;;;19.04;61.63;101661.09;6028060;23;20027;-71
2022/07/16 06:49:20;;;;;;;5.88;5.35;;;;;;;18.99;61.55;101661.44;5997889;23;20150;-70
2022/07/16 06:51:46;;;;;;;5.80;5.50;;;;;;;19.47;61.12;101700.56;6024243;23;20030;-70
2022/07/16 06:54:13;;;;;;;6.05;5.75;;;;;;;19.53;60.45;101669.00;6020877;23;20147;-70
2022/07/16 06:56:39;;;;;;;5.40;5.20;;;;;;;19.32;60.08;101606.69;6022316;23;20086;-70
2022/07/16 06:59:05;;;;;;;5.75;5.45;;;;;;;20.12;59.96;101717.88;6027359;23;20476;-69
2022/07/16 07:01:32;;;;;;;6.18;5.88;;;;;;;20.24;59.33;101713.44;6017852;23;20335;-71
2022/07/16 07:03:58;;;;;;;6.78;6.47;;;;;;;20.54;58.59;101718.19;6020742;23;20022;-70
2022/07/16 07:06:25;;;;;;;5.57;5.28;;;;;;;20.67;57.43;101734.16;6029886;23;21101;-71
2022/07/16 07:08:52;;;;;;;6.18;5.88;;;;;;;20.51;58.25;101697.97;6018051;23;20050;-71
2022/07/16 07:11:21;;;;;;;5.80;5.50;;;;;;;20.02;59.19;101629.81;6026215;23;20087;-70
2022/07/16 07:13:48;;;;;;;5.70;5.40;;;;;;;20.29;60.35;101696.13;5994526;23;20050;-71
2022/07/16 07:16:16;;;;;;;5.97;5.68;;;;;;;20.17;61.50;101693.56;6020947;23;20009;-69
2022/07/16 07:18:42;;;;;;;5.53;5.30;;;;;;;20.19;62.55;101684.47;5998421;23;20027;-69
2022/07/16 07:21:09;;;;;;;6.00;5.70;;;;;;;20.63;60.63;101712.19;6020304;23;20609;-70
2022/07/16 07:23:36;;;;;;;5.63;5.32;;;;;;;20.24;61.45;101657.47;5994458;23;20078;-70
2022/07/16 07:26:02;;;;;;;7.15;6.78;;;;;;;20.31;62.45;101677.34;6016573;23;20111;-71
2022/07/16 07:28:28;;;;;;;5.80;5.50;;;;;;;20.56;62.25;101694.09;5997949;23;20083;-70
2022/07/16 07:30:56;;;;;;;7.00;6.60;;;;;;;20.16;62.68;101671.38;6019536;23;20103;-71
2022/07/16 07:33:24;;;;;;;6.15;5.82;;;;;;;20.46;62.89;101700.13;6020675;23;20023;-71
2022/07/16 07:35:51;;;;;;;5.63;5.40;;;;;;;20.64;62.04;101697.88;6022999;23;20031;-72
2022/07/16 07:38:18;;;;;;;6.13;5.72;;;;;;;20.47;61.01;101669.84;6019277;23;20037;-71
2022/07/16 07:40:46;;;;;;;5.90;5.60;;;;;;;20.69;62.00;101700.19;6001637;23;20027;-71
2022/07/16 07:43:12;;;;;;;9.43;5.88;;;;;;;20.31;62.42;101690.69;6022579;23;20838;-71
2022/07/16 07:45:39;;;;;;;5.53;5.22;;;;;;;20.06;63.95;101646.41;5999991;23;20101;-71
2022/07/16 07:48:06;;;;;;;7.28;6.88;;;;;;;20.25;64.34;101664.50;6041235;23;20081;-69
2022/07/16 07:50:32;;;;;;;5.65;5.35;;;;;;;20.09;64.01;101628.38;6020138;23;20020;-71
2022/07/16 07:52:59;;;;;;;6.72;6.43;;;;;;;20.35;64.82;101673.47;6015326;23;20101;-70
2022/07/16 07:55:26;;;;;;;5.80;5.50;;;;;;;20.29;64.89;101671.28;6017091;23;20122;-74
2022/07/16 07:57:53;;;;;;;5.93;5.43;;;;;;;20.43;65.39;101684.38;6022456;23;20347;-73
2022/07/16 08:00:19;;;;;;;5.47;5.18;;;;;;;20.57;64.18;101701.97;6015520;23;20275;-71
2022/07/16 08:02:46;;;;;;;5.50;5.30;;;;;;;20.40;64.33;101670.44;5995486;23;20064;-73
2022/07/16 08:05:14;;;;;;;5.50;5.30;;;;;;;20.50;63.29;101655.41;6022208;23;20007;-73
2022/07/16 08:07:41;;;;;;;5.43;5.22;;;;;;;20.84;63.84;101695.44;5998267;23;20094;-72
2022/07/16 08:10:08;;;;;;;6.43;6.13;;;;;;;19.96;63.91;101595.66;6013275;23;20082;-74
2022/07/16 08:12:37;;;;;;;5.60;5.30;;;;;;;20.08;63.60;101567.19;5994923;23;20038;-71
2022/07/16 08:15:04;;;;;;;6.18;5.88;;;;;;;21.19;61.98;101711.31;6034772;23;20026;-75
2022/07/16 08:17:38;;;;;;;5.40;5.13;;;;;;;21.15;61.83;101698.31;6007744;23;20121;-73
2022/07/16 08:20:06;;;;;;;5.95;5.65;;;;;;;21.27;61.83;101745.38;6036339;23;20035;-72
2022/07/16 08:22:32;;;;;;;5.55;5.25;;;;;;;21.04;61.59;101646.66;5992878;23;20026;-74
2022/07/16 08:27:44;;;;;;;5.60;5.30;;;;;;;20.88;61.53;101662.22;6014594;23;20082;-73
2022/07/16 08:30:10;;;;;;;5.63;5.32;;;;;;;20.97;61.90;101712.19;6019868;23;20064;-68
2022/07/16 08:32:37;;;;;;;5.70;5.40;;;;;;;20.81;60.89;101683.22;6035177;23;20047;-70
2022/07/16 08:35:04;;;;;;;6.07;5.78;;;;;;;20.82;60.36;101682.22;6028355;23;20109;-69
2022/07/16 08:37:35;;;;;;;5.40;5.20;;;;;;;21.01;61.09;101686.09;6024685;23;20438;-72
2022/07/16 08:40:08;;;;;;;5.95;5.55;;;;;;;21.26;58.99;101712.47;6026157;23;20023;-75
2022/07/16 08:42:35;;;;;;;5.57;5.28;;;;;;;21.39;58.89;101715.00;5993870;23;20070;-72
2022/07/16 08:45:04;;;;;;;5.63;5.35;;;;;;;21.34;58.83;101708.34;6020293;23;20464;-74
2022/07/16 08:47:32;;;;;;;5.60;5.30;;;;;;;21.34;55.93;101706.53;6022910;23;20096;-73
2022/07/16 08:50:01;;;;;;;5.20;5.00;;;;;;;20.94;56.60;101672.38;6024158;23;20093;-72
2022/07/16 08:52:28;;;;;;;5.63;5.32;;;;;;;20.17;56.44;101531.84;6026784;23;20116;-72
2022/07/16 08:54:56;;;;;;;6.43;5.93;;;;;;;20.95;56.07;101678.56;6021251;23;20018;-68
2022/07/16 08:57:24;;;;;;;5.72;5.43;;;;;;;20.87;51.67;101685.38;6015067;23;20026;-68
2022/07/16 08:59:52;;;;;;;5.28;5.07;;;;;;;20.51;50.21;101657.97;6024587;23;20034;-68
2022/07/16 09:02:18;;;;;;;5.40;5.20;;;;;;;20.33;52.85;101646.94;6025120;23;20530;-68
2022/07/16 09:04:46;;;;;;;5.60;5.30;;;;;;;20.13;53.59;101645.81;6025692;23;20476;-68
2022/07/16 09:07:14;;;;;;;6.57;6.18;;;;;;;20.63;51.49;101672.19;6025122;23;20038;-68
2022/07/16 09:09:41;;;;;;;5.75;5.43;;;;;;;20.64;51.30;101651.69;6020992;23;20110;-68
2022/07/16 09:12:08;;;;;;;6.28;5.97;;;;;;;21.19;51.01;101711.31;5987101;23;20031;-68
2022/07/16 09:14:34;;;;;;;5.47;5.18;;;;;;;20.99;48.02;101704.91;6020753;23;20031;-67
2022/07/16 09:17:01;;;;;;;5.30;5.10;;;;;;;20.87;46.87;101705.88;6023979;23;20018;-68
2022/07/16 09:19:29;;;;;;;5.90;5.60;;;;;;;21.06;46.95;101719.44;6022478;23;20073;-68
2022/07/16 09:22:03;;;;;;;5.43;5.13;;;;;;;21.50;45.51;101741.69;6022210;23;20082;-68
2022/07/16 09:24:54;;;;;;;5.38;5.15;;;;;;;21.91;43.87;101766.84;6025732;23;20047;-68
2022/07/16 09:27:25;;;;;;;6.60;6.30;;;;;;;21.72;43.89;101753.28;6022431;23;20339;-68
2022/07/16 09:29:58;;;;;;;5.25;5.05;;;;;;;21.28;43.34;101718.53;6026392;23;20034;-68
2022/07/16 09:32:31;;;;;;;5.40;5.20;;;;;;;20.83;45.07;101686.59;6014079;23;20233;-68
2022/07/16 09:35:05;;;;;;;5.20;5.00;;;;;;;21.25;44.61;101728.66;6022213;23;20596;-68
2022/07/16 09:37:48;;;;;;;5.30;5.10;;;;;;;21.67;44.90;101755.53;6000836;23;20074;-68
2022/07/16 09:40:15;;;;;;;6.50;6.20;;;;;;;;;;6022365;23;20098;-68
2022/07/16 09:42:41;;;;;;;5.10;4.90;;;;;;;22.24;43.84;101767.66;5998324;23;20397;-68
2022/07/16 09:45:18;;;;;;;5.93;5.65;;;;;;;21.89;43.90;101739.38;6032046;23;20019;-68
2022/07/16 09:47:45;;;;;;;5.30;5.10;;;;;;;22.27;45.80;101747.84;6020570;23;20021;-68
2022/07/16 09:50:12;;;;;;;6.22;5.93;;;;;;;21.94;45.04;101714.94;6028739;23;20027;-71
2022/07/16 09:52:39;;;;;;;5.30;5.10;;;;;;;21.70;45.30;101717.84;6020255;23;20020;-75
2022/07/16 09:55:07;;;;;;;5.75;5.45;;;;;;;20.98;45.66;101657.81;6027736;23;20037;-75
2022/07/16 09:57:34;;;;;;;5.40;5.20;;;;;;;21.55;46.90;101738.69;6030729;23;20019;-72
2022/07/16 10:00:00;;;;;;;5.25;5.05;;;;;;;21.14;46.01;101677.94;6025223;23;21339;-74
2022/07/16 10:02:29;;;;;;;5.10;4.90;;;;;;;21.95;46.48;101754.06;6019000;23;20067;-73
2022/07/16 10:04:59;;;;;;;5.30;5.10;;;;;;;22.23;45.71;101762.41;6004771;23;20102;-75
2022/07/16 10:07:32;;;;;;;5.28;5.07;;;;;;;22.22;45.32;101758.06;6023646;23;21746;-73
2022/07/16 10:09:59;;;;;;;5.38;5.18;;;;;;;22.18;43.84;101733.41;5988436;23;20031;-73
2022/07/16 10:12:26;;;;;;;5.50;5.30;;;;;;;22.43;42.45;101763.41;6022657;23;20035;-73
2022/07/16 10:14:54;;;;;;;5.20;5.00;;;;;;;22.82;41.22;101783.22;6041411;23;20507;-73
2022/07/16 10:17:29;;;;;;;6.68;6.38;;;;;;;23.18;41.03;101801.59;6015827;23;20036;-75
2022/07/16 10:20:08;;;;;;;5.20;5.00;;;;;;;23.00;42.75;101742.44;6033980;23;20475;-73
2022/07/16 10:22:40;;;;;;;5.10;4.90;;;;;;;22.87;42.85;101729.28;6018016;23;20520;-71
2022/07/16 10:25:19;;;;;;;6.72;6.43;;;;;;;23.84;42.71;101803.72;5992015;23;20035;-75
2022/07/16 10:27:46;;;;;;;5.30;5.10;;;;;;;23.21;41.25;101680.78;6017224;23;20090;-74
2022/07/16 10:30:25;;;;;;;5.57;5.28;;;;;;;23.62;40.83;101770.81;6020546;23;20362;-68
2022/07/16 10:33:05;;;;;;;5.90;5.60;;;;;;;24.31;40.12;101824.47;6016109;23;20025;-68
2022/07/16 10:35:41;;;;;;;5.43;5.22;;;;;;;25.22;38.59;101854.41;5993538;23;20035;-69
2022/07/16 10:38:29;;;;;;;6.65;6.35;;;;;;;24.57;38.66;101811.31;6018898;23;20030;-67
2022/07/16 10:41:10;;;;;;;5.40;5.20;;;;;;;23.85;41.28;101747.28;6004671;23;20031;-68
2022/07/16 10:43:37;;;;;;;5.57;5.28;;;;;;;23.04;41.13;101693.84;6022607;23;20073;-68
2022/07/16 10:46:06;;;;;;;5.70;5.50;;;;;;;23.15;41.80;101711.63;6001291;23;20082;-68
2022/07/16 10:48:38;;;;;;;5.57;5.32;;;;;;;24.02;41.91;101785.09;6022705;23;20014;-68
2022/07/16 10:51:22;;;;;;;6.10;5.82;;;;;;;24.31;41.76;101803.00;6030829;23;20022;-68
2022/07/16 10:53:58;;;;;;;5.50;5.30;;;;;;;24.20;41.62;101786.06;6017403;23;20034;-68
2022/07/16 10:56:35;;;;;;;5.93;5.50;;;;;;;23.80;40.08;101775.50;6041152;23;20033;-68
2022/07/16 10:59:03;;;;;;;5.65;5.35;;;;;;;22.59;41.04;101619.34;6004588;23;20055;-68
2022/07/16 11:01:30;;;;;;;5.40;5.20;;;;;;;23.47;38.85;101748.94;6050275;23;20680;-68
2022/07/16 11:03:57;;;;;;;5.70;5.40;;;;;;;24.20;39.60;101783.41;6012404;23;20022;-68
2022/07/16 11:06:24;;;;;;;6.07;5.78;;;;;;;25.06;37.05;101828.97;6026022;23;20034;-68
2022/07/16 11:08:58;;;;;;;5.50;5.30;;;;;;;25.47;36.36;101802.63;5997263;23;20455;-68
2022/07/16 11:11:39;;;;;;;5.80;5.50;;;;;;;25.81;36.47;101807.34;6005284;23;20293;-69
2022/07/16 11:14:09;;;;;;;5.90;5.63;;;;;;;25.14;37.04;101765.59;5992162;23;20498;-69
2022/07/16 11:16:46;;;;;;;5.50;5.30;;;;;;;23.56;40.44;101676.72;6007908;23;20007;-68
2022/07/16 11:19:13;;;;;;;6.35;6.05;;;;;;;23.51;41.86;101701.25;5994198;23;20266;-68
2022/07/16 11:21:59;;;;;;;5.90;5.38;;;;;;;23.54;41.71;101722.41;6015197;23;20027;-68
2022/07/16 11:24:27;;;;;;;5.85;5.55;;;;;;;23.47;40.50;101707.88;6022984;23;20034;-68
2022/07/16 11:26:55;;;;;;;5.35;5.15;;;;;;;24.42;40.29;101770.66;6020222;23;20007;-68
2022/07/16 11:29:24;;;;;;;6.03;5.72;;;;;;;25.14;39.22;101793.31;6007635;23;20380;-68
2022/07/16 11:31:52;;;;;;;5.68;5.38;;;;;;;24.56;39.38;101738.03;6024115;23;20781;-66
2022/07/16 11:34:23;;;;;;;5.40;5.10;;;;;;;23.43;40.42;101688.56;6017304;23;20386;-69
2022/07/16 11:36:53;;;;;;;5.30;5.10;;;;;;;22.87;43.09;101676.59;6000873;23;20066;-69